createdAt,value
2023-03-29T00:03:16.409Z,13.00
2023-03-29T00:08:21.661Z,11.10
2023-03-29T00:13:23.582Z,10.80
2023-03-29T00:18:25.809Z,8.30
2023-03-29T00:23:27.775Z,5.90
2023-03-29T00:28:30.914Z,8.00
2023-03-29T00:33:32.994Z,6.50
2023-03-29T00:38:35.763Z,7.90
2023-03-29T00:44:01.129Z,7.00
2023-03-29T00:49:13.442Z,6.90
2023-03-29T00:54:18.322Z,7.70
2023-03-29T00:59:24.354Z,9.20
2023-03-29T01:04:36.520Z,7.90
2023-03-29T01:09:42.834Z,8.30
2023-03-29T01:14:53.855Z,9.70
2023-03-29T01:20:01.699Z,8.60
2023-03-29T01:25:45.068Z,9.50
2023-03-29T01:30:55.786Z,9.10
2023-03-29T01:36:11.758Z,8.90
2023-03-29T01:41:14.068Z,10.90
2023-03-29T01:46:31.204Z,9.70
2023-03-29T01:51:41.834Z,12.80
2023-03-29T01:56:48.931Z,8.90
2023-03-29T02:01:56.956Z,14.10
2023-03-29T02:07:01.109Z,12.40
2023-03-29T02:12:04.140Z,13.60
2023-03-29T02:17:19.924Z,8.60
2023-03-29T02:22:28.144Z,12.60
2023-03-29T02:27:30.230Z,11.50
2023-03-29T02:32:48.561Z,8.60
2023-03-29T02:37:54.407Z,7.70
2023-03-29T02:42:58.102Z,9.00
2023-03-29T02:48:05.233Z,16.50
2023-03-29T02:53:18.921Z,9.10
2023-03-29T02:58:28.731Z,6.90
2023-03-29T03:03:31.397Z,9.00
2023-03-29T03:08:33.629Z,10.10
2023-03-29T03:13:35.980Z,13.00
2023-03-29T03:18:38.772Z,10.60
2023-03-29T03:23:40.703Z,10.10
2023-03-29T03:28:42.756Z,9.20
2023-03-29T03:33:45.564Z,7.70
2023-03-29T03:38:47.494Z,5.40
2023-03-29T03:43:49.613Z,9.60
2023-03-29T03:48:51.815Z,7.40
2023-03-29T03:53:53.825Z,5.20
2023-03-29T03:58:56.968Z,20.80
2023-03-29T04:03:59.065Z,14.30
2023-03-29T04:09:01.062Z,15.40
2023-03-29T04:14:04.375Z,11.60
2023-03-29T04:19:06.317Z,7.80
2023-03-29T04:24:08.536Z,12.30
2023-03-29T04:29:10.556Z,6.80
2023-03-29T04:34:12.605Z,6.10
2023-03-29T04:39:14.582Z,11.10
2023-03-29T04:44:16.745Z,5.30
2023-03-29T04:49:18.734Z,7.40
2023-03-29T04:54:20.901Z,7.50
2023-03-29T04:59:23.050Z,11.90
2023-03-29T05:04:25.076Z,8.40
2023-03-29T05:09:27.137Z,12.40
2023-03-29T05:14:29.179Z,16.90
2023-03-29T05:19:32.024Z,12.40
2023-03-29T05:24:34.962Z,15.00
2023-03-29T05:29:37.004Z,12.30
2023-03-29T05:34:39.273Z,11.40
2023-03-29T05:39:41.245Z,12.90
2023-03-29T05:44:43.283Z,11.60
2023-03-29T05:49:54.416Z,13.80
2023-03-29T05:54:56.762Z,11.90
2023-03-29T05:59:58.850Z,16.30
2023-03-29T06:11:44.168Z,12.50
2023-03-29T06:23:49.974Z,11.00
2023-03-29T06:28:57.391Z,8.20
2023-03-29T06:34:15.114Z,7.30
2023-03-29T06:39:31.925Z,7.40
2023-03-29T06:44:47.399Z,7.40
2023-03-29T06:49:50.098Z,7.60
2023-03-29T06:54:52.411Z,7.00
2023-03-29T06:59:56.497Z,6.80
2023-03-29T07:04:58.732Z,7.00
2023-03-29T07:10:01.438Z,6.70
2023-03-29T07:15:04.192Z,6.30
2023-03-29T07:20:12.370Z,7.00
2023-03-29T07:25:15.416Z,5.70
2023-03-29T07:30:22.495Z,6.20
2023-03-29T07:35:26.308Z,8.50
2023-03-29T07:40:29.026Z,10.70
2023-03-29T07:45:31.346Z,11.00
2023-03-29T07:50:33.753Z,9.60
2023-03-29T07:55:35.992Z,6.80
2023-03-29T08:00:37.990Z,5.70
2023-03-29T08:05:41.685Z,7.50
2023-03-29T08:10:44.241Z,7.60
2023-03-29T08:15:48.268Z,6.50
2023-03-29T08:20:51.501Z,6.70
2023-03-29T08:25:53.515Z,8.00
2023-03-29T08:30:55.567Z,7.00
2023-03-29T08:35:57.775Z,6.20
2023-03-29T08:41:00.787Z,6.20
2023-03-29T08:46:14.730Z,6.00
2023-03-29T08:51:34.287Z,5.10
2023-03-29T08:56:39.384Z,6.40
2023-03-29T09:01:42.624Z,6.10
2023-03-29T09:06:44.715Z,3.80
2023-03-29T09:12:05.970Z,5.70
2023-03-29T09:17:27.176Z,5.60
2023-03-29T09:22:58.258Z,5.60
2023-03-29T09:28:18.941Z,6.90
2023-03-29T09:33:43.282Z,7.60
2023-03-29T09:38:50.765Z,6.20
2023-03-29T09:43:56.598Z,4.60
2023-03-29T09:48:58.915Z,6.40
2023-03-29T09:54:01.639Z,6.70
2023-03-29T09:59:03.899Z,4.30
2023-03-29T10:04:08.747Z,5.90
2023-03-29T10:09:24.388Z,9.10
2023-03-29T10:14:42.342Z,6.80
2023-03-29T10:19:55.518Z,5.00
2023-03-29T10:24:57.961Z,4.60
2023-03-29T10:30:12.639Z,3.70
2023-03-29T10:35:41.581Z,3.60
2023-03-29T10:40:50.296Z,5.90
2023-03-29T10:45:55.281Z,5.40
2023-03-29T10:51:00.441Z,3.90
2023-03-29T10:56:14.829Z,5.20
2023-03-29T11:01:31.269Z,5.70
2023-03-29T11:06:38.757Z,5.10
2023-03-29T11:12:15.170Z,5.10
2023-03-29T11:17:40.933Z,5.40
2023-03-29T11:22:53.121Z,6.50
2023-03-29T11:28:01.279Z,5.30
2023-03-29T11:33:42.211Z,8.40
2023-03-29T11:39:14.919Z,6.00
2023-03-29T11:44:31.466Z,6.00
2023-03-29T11:49:36.955Z,7.50
2023-03-29T11:54:52.298Z,3.30
2023-03-29T12:00:04.824Z,5.60
2023-03-29T12:05:25.645Z,5.90
2023-03-29T12:10:37.499Z,6.20
2023-03-29T12:15:49.432Z,5.10
2023-03-29T12:20:59.679Z,6.70
2023-03-29T12:26:17.273Z,5.90
2023-03-29T12:31:34.404Z,7.80
2023-03-29T12:37:10.872Z,5.10
2023-03-29T12:42:22.402Z,5.50
2023-03-29T12:47:33.950Z,5.20
2023-03-29T12:52:36.838Z,6.10
2023-03-29T12:58:02.990Z,8.40
2023-03-29T13:03:52.324Z,6.00
2023-03-29T13:09:04.751Z,6.30
2023-03-29T13:14:19.102Z,4.90
2023-03-29T13:19:57.201Z,5.90
2023-03-29T13:25:08.084Z,6.50
2023-03-29T13:30:21.382Z,6.90
2023-03-29T13:35:47.879Z,7.10
2023-03-29T13:40:54.450Z,12.20
2023-03-29T13:45:56.521Z,7.40
2023-03-29T13:51:14.091Z,6.10
2023-03-29T13:56:28.528Z,5.00
2023-03-29T14:01:40.446Z,8.90
2023-03-29T14:06:50.678Z,6.00
2023-03-29T14:11:53.688Z,7.80
2023-03-29T14:16:56.546Z,8.70
2023-03-29T14:22:07.066Z,7.40
2023-03-29T14:27:11.812Z,8.10
2023-03-29T14:32:17.467Z,7.90
2023-03-29T14:37:26.990Z,8.70
2023-03-29T14:42:29.532Z,9.60
2023-03-29T14:47:33.828Z,7.00
2023-03-29T14:52:36.806Z,8.30
2023-03-29T14:57:39.044Z,8.00
2023-03-29T15:03:08.721Z,11.80
2023-03-29T15:08:28.511Z,8.40
2023-03-29T15:13:30.725Z,8.90
2023-03-29T15:18:39.426Z,7.20
2023-03-29T15:23:53.591Z,7.10
2023-03-29T15:29:07.678Z,5.80
2023-03-29T15:34:09.864Z,6.60
2023-03-29T15:39:17.614Z,7.10
2023-03-29T15:44:28.547Z,7.00
2023-03-29T15:49:30.696Z,7.20
2023-03-29T15:54:33.857Z,7.50
2023-03-29T15:59:36.054Z,8.10
2023-03-29T16:04:38.078Z,8.10
2023-03-29T16:09:40.562Z,7.20
2023-03-29T16:14:43.236Z,9.60
2023-03-29T16:19:46.154Z,10.20
2023-03-29T16:24:48.147Z,9.40
2023-03-29T16:29:50.195Z,8.20
2023-03-29T16:34:53.162Z,8.60
2023-03-29T16:39:56.860Z,9.40
2023-03-29T16:45:01.810Z,7.50
2023-03-29T16:50:08.546Z,10.00
2023-03-29T16:55:13.116Z,9.20
2023-03-29T17:00:19.779Z,11.10
2023-03-29T17:05:21.914Z,10.40
2023-03-29T17:10:24.213Z,9.80
2023-03-29T17:15:26.432Z,10.40
2023-03-29T17:20:28.706Z,9.60
2023-03-29T17:25:31.056Z,11.00
2023-03-29T17:30:35.020Z,13.50
2023-03-29T17:35:37.266Z,12.10
2023-03-29T17:40:39.850Z,12.40
2023-03-29T17:45:41.854Z,14.90
2023-03-29T17:50:43.850Z,12.90
2023-03-29T17:55:46.356Z,12.30
2023-03-29T18:00:49.675Z,11.00
2023-03-29T18:05:53.877Z,12.20
2023-03-29T18:11:03.932Z,11.10
2023-03-29T18:16:08.598Z,12.50
2023-03-29T18:21:10.911Z,13.70
2023-03-29T18:26:14.376Z,12.70
2023-03-29T18:31:16.701Z,11.70
2023-03-29T18:36:18.830Z,12.40
2023-03-29T18:41:23.129Z,10.70
2023-03-29T18:46:26.386Z,10.80
2023-03-29T18:51:28.945Z,9.80
2023-03-29T18:56:32.061Z,11.90
2023-03-29T19:01:34.367Z,11.70
2023-03-29T19:06:36.359Z,16.40
2023-03-29T19:11:38.338Z,12.70
2023-03-29T19:16:42.264Z,16.30
2023-03-29T19:21:47.122Z,15.00
2023-03-29T19:26:52.343Z,10.60
2023-03-29T19:31:55.980Z,10.40
2023-03-29T19:36:59.917Z,14.40
2023-03-29T19:42:02.061Z,11.60
2023-03-29T19:47:05.273Z,12.80
2023-03-29T19:52:10.474Z,15.30
2023-03-29T19:57:12.569Z,11.90
2023-03-29T20:02:15.427Z,20.90
2023-03-29T20:07:17.430Z,35.30
2023-03-29T20:12:19.551Z,35.90
2023-03-29T20:17:21.908Z,36.10
2023-03-29T20:22:25.972Z,36.50
2023-03-29T20:27:29.122Z,32.40
2023-03-29T20:32:31.275Z,20.40
2023-03-29T20:37:33.276Z,17.50
2023-03-29T20:42:37.857Z,11.40
2023-03-29T20:47:42.018Z,13.40
2023-03-29T20:52:47.548Z,10.80
2023-03-29T20:57:59.289Z,10.90
2023-03-29T21:03:03.646Z,11.90
2023-03-29T21:08:06.048Z,12.30
2023-03-29T21:13:08.102Z,11.70
2023-03-29T21:18:10.550Z,10.50
2023-03-29T21:23:13.062Z,9.60
2023-03-29T21:28:15.108Z,13.60
2023-03-29T21:33:17.088Z,9.50
2023-03-29T21:38:19.090Z,12.00
2023-03-29T21:43:21.076Z,9.60
2023-03-29T21:48:23.104Z,9.90
2023-03-29T21:53:25.647Z,18.10
2023-03-29T21:58:27.843Z,14.00
2023-03-29T22:03:29.958Z,16.80
2023-03-29T22:08:32.927Z,14.20
2023-03-29T22:13:35.105Z,15.40
2023-03-29T22:18:43.990Z,11.90
2023-03-29T22:23:49.677Z,12.90
2023-03-29T22:28:51.671Z,13.60
2023-03-29T22:33:53.748Z,13.60
2023-03-29T22:38:56.529Z,13.60
2023-03-29T22:44:02.161Z,13.60
2023-03-29T22:49:04.169Z,14.30
2023-03-29T22:54:09.199Z,13.50
2023-03-29T22:59:11.250Z,12.60
2023-03-29T23:04:13.997Z,11.60
2023-03-29T23:09:16.606Z,11.50
2023-03-29T23:14:19.427Z,11.20
2023-03-29T23:19:21.991Z,12.40
2023-03-29T23:24:23.984Z,14.90
2023-03-29T23:29:25.992Z,13.90
2023-03-29T23:34:28.366Z,13.10
2023-03-29T23:39:30.403Z,14.90
2023-03-29T23:44:32.325Z,15.30
2023-03-29T23:49:35.933Z,14.50
2023-03-29T23:54:37.876Z,15.40
2023-03-29T23:59:39.855Z,14.80
